sensor_id;sensor_type;location;lat;lon;timestamp;P1;durP1;ratioP1;P2;durP2;ratioP2
26780;SDS011;14366;49.184;8.054;2023-05-07T00:05:29;3.53;;;1.97;;
26780;SDS011;14366;49.184;8.054;2023-05-07T00:11:05;2.57;;;2.20;;
26780;SDS011;14366;49.184;8.054;2023-05-07T00:16:37;4.60;;;2.00;;
26780;SDS011;14366;49.184;8.054;2023-05-07T00:22:09;3.00;;;2.10;;
26780;SDS011;14366;49.184;8.054;2023-05-07T00:32:46;4.43;;;2.37;;
26780;SDS011;14366;49.184;8.054;2023-05-07T00:43:22;5.33;;;2.37;;
26780;SDS011;14366;49.184;8.054;2023-05-07T00:53:43;3.15;;;2.30;;
26780;SDS011;14366;49.184;8.054;2023-05-07T00:59:13;3.50;;;2.30;;
26780;SDS011;14366;49.184;8.054;2023-05-07T01:04:45;5.30;;;2.50;;
26780;SDS011;14366;49.184;8.054;2023-05-07T01:10:04;3.47;;;2.13;;
26780;SDS011;14366;49.184;8.054;2023-05-07T01:15:39;3.40;;;2.37;;
26780;SDS011;14366;49.184;8.054;2023-05-07T01:21:08;2.10;;;1.90;;
26780;SDS011;14366;49.184;8.054;2023-05-07T01:26:41;2.60;;;2.10;;
26780;SDS011;14366;49.184;8.054;2023-05-07T01:32:13;4.40;;;2.10;;
26780;SDS011;14366;49.184;8.054;2023-05-07T01:38:03;2.15;;;1.95;;
26780;SDS011;14366;49.184;8.054;2023-05-07T01:43:41;2.23;;;2.00;;
26780;SDS011;14366;49.184;8.054;2023-05-07T01:49:17;3.80;;;2.35;;
26780;SDS011;14366;49.184;8.054;2023-05-07T01:54:52;3.52;;;2.50;;
26780;SDS011;14366;49.184;8.054;2023-05-07T02:06:30;3.97;;;2.30;;
26780;SDS011;14366;49.184;8.054;2023-05-07T02:12:06;4.53;;;2.03;;
26780;SDS011;14366;49.184;8.054;2023-05-07T02:17:23;2.77;;;2.17;;
26780;SDS011;14366;49.184;8.054;2023-05-07T02:22:44;2.80;;;1.80;;
26780;SDS011;14366;49.184;8.054;2023-05-07T02:28:20;3.10;;;2.20;;
26780;SDS011;14366;49.184;8.054;2023-05-07T02:33:55;3.83;;;1.90;;
26780;SDS011;14366;49.184;8.054;2023-05-07T02:39:18;3.05;;;2.05;;
26780;SDS011;14366;49.184;8.054;2023-05-07T02:44:51;1.70;;;1.60;;
26780;SDS011;14366;49.184;8.054;2023-05-07T02:50:08;2.37;;;1.80;;
26780;SDS011;14366;49.184;8.054;2023-05-07T02:55:28;3.93;;;2.20;;
26780;SDS011;14366;49.184;8.054;2023-05-07T03:06:04;2.63;;;1.93;;
26780;SDS011;14366;49.184;8.054;2023-05-07T03:11:39;2.95;;;2.20;;
26780;SDS011;14366;49.184;8.054;2023-05-07T03:17:13;2.53;;;1.90;;
26780;SDS011;14366;49.184;8.054;2023-05-07T03:22:48;2.65;;;2.10;;
26780;SDS011;14366;49.184;8.054;2023-05-07T03:28:07;2.83;;;2.20;;
26780;SDS011;14366;49.184;8.054;2023-05-07T03:33:49;2.40;;;2.10;;
26780;SDS011;14366;49.184;8.054;2023-05-07T03:39:24;2.40;;;2.20;;
26780;SDS011;14366;49.184;8.054;2023-05-07T03:44:43;3.30;;;2.40;;
26780;SDS011;14366;49.184;8.054;2023-05-07T03:50:19;3.57;;;2.20;;
26780;SDS011;14366;49.184;8.054;2023-05-07T03:55:47;8.07;;;2.43;;
26780;SDS011;14366;49.184;8.054;2023-05-07T04:01:06;3.60;;;2.17;;
26780;SDS011;14366;49.184;8.054;2023-05-07T04:06:37;3.27;;;2.30;;
26780;SDS011;14366;49.184;8.054;2023-05-07T04:11:54;3.45;;;2.30;;
26780;SDS011;14366;49.184;8.054;2023-05-07T04:17:13;6.87;;;2.23;;
26780;SDS011;14366;49.184;8.054;2023-05-07T04:27:48;3.17;;;2.20;;
26780;SDS011;14366;49.184;8.054;2023-05-07T04:38:27;4.17;;;2.30;;
26780;SDS011;14366;49.184;8.054;2023-05-07T04:44:00;5.20;;;2.30;;
26780;SDS011;14366;49.184;8.054;2023-05-07T04:49:21;2.83;;;2.20;;
26780;SDS011;14366;49.184;8.054;2023-05-07T04:59:58;4.17;;;2.10;;
26780;SDS011;14366;49.184;8.054;2023-05-07T05:10:34;3.10;;;2.13;;
26780;SDS011;14366;49.184;8.054;2023-05-07T05:15:53;4.80;;;2.30;;
26780;SDS011;14366;49.184;8.054;2023-05-07T05:21:25;2.73;;;2.10;;
26780;SDS011;14366;49.184;8.054;2023-05-07T05:31:51;4.03;;;2.43;;
26780;SDS011;14366;49.184;8.054;2023-05-07T05:42:27;3.67;;;2.10;;
26780;SDS011;14366;49.184;8.054;2023-05-07T05:47:45;3.53;;;2.37;;
26780;SDS011;14366;49.184;8.054;2023-05-07T05:53:18;6.83;;;2.70;;
26780;SDS011;14366;49.184;8.054;2023-05-07T05:58:39;3.35;;;2.35;;
26780;SDS011;14366;49.184;8.054;2023-05-07T06:03:57;3.80;;;2.67;;
26780;SDS011;14366;49.184;8.054;2023-05-07T06:09:29;4.35;;;2.55;;
26780;SDS011;14366;49.184;8.054;2023-05-07T06:14:46;3.35;;;2.60;;
26780;SDS011;14366;49.184;8.054;2023-05-07T06:20:19;5.60;;;2.50;;
26780;SDS011;14366;49.184;8.054;2023-05-07T06:25:52;4.23;;;2.77;;
26780;SDS011;14366;49.184;8.054;2023-05-07T06:31:29;4.63;;;2.60;;
26780;SDS011;14366;49.184;8.054;2023-05-07T06:36:59;4.07;;;2.53;;
26780;SDS011;14366;49.184;8.054;2023-05-07T06:42:29;5.15;;;2.50;;
26780;SDS011;14366;49.184;8.054;2023-05-07T06:52:52;3.73;;;2.43;;
26780;SDS011;14366;49.184;8.054;2023-05-07T06:58:28;4.20;;;2.90;;
26780;SDS011;14366;49.184;8.054;2023-05-07T07:03:49;3.65;;;2.65;;
26780;SDS011;14366;49.184;8.054;2023-05-07T07:09:22;3.20;;;2.40;;
26780;SDS011;14366;49.184;8.054;2023-05-07T07:14:54;3.73;;;2.50;;
26780;SDS011;14366;49.184;8.054;2023-05-07T07:20:29;5.43;;;2.40;;
26780;SDS011;14366;49.184;8.054;2023-05-07T07:25:48;2.97;;;2.40;;
26780;SDS011;14366;49.184;8.054;2023-05-07T07:31:18;4.47;;;2.47;;
26780;SDS011;14366;49.184;8.054;2023-05-07T07:36:36;3.90;;;2.40;;
26780;SDS011;14366;49.184;8.054;2023-05-07T07:41:55;2.80;;;2.30;;
26780;SDS011;14366;49.184;8.054;2023-05-07T07:47:27;2.80;;;2.20;;
26780;SDS011;14366;49.184;8.054;2023-05-07T07:52:47;3.50;;;2.40;;
26780;SDS011;14366;49.184;8.054;2023-05-07T07:58:23;4.30;;;2.60;;
26780;SDS011;14366;49.184;8.054;2023-05-07T08:03:58;3.00;;;2.50;;
26780;SDS011;14366;49.184;8.054;2023-05-07T08:09:30;3.37;;;2.50;;
26780;SDS011;14366;49.184;8.054;2023-05-07T08:19:57;3.73;;;2.80;;
26780;SDS011;14366;49.184;8.054;2023-05-07T08:30:34;5.10;;;2.83;;
26780;SDS011;14366;49.184;8.054;2023-05-07T08:35:53;3.63;;;2.70;;
26780;SDS011;14366;49.184;8.054;2023-05-07T08:41:28;3.77;;;2.70;;
26780;SDS011;14366;49.184;8.054;2023-05-07T08:47:01;3.53;;;2.93;;
26780;SDS011;14366;49.184;8.054;2023-05-07T08:52:34;3.40;;;2.50;;
26780;SDS011;14366;49.184;8.054;2023-05-07T08:58:08;3.77;;;2.60;;
26780;SDS011;14366;49.184;8.054;2023-05-07T09:03:25;3.67;;;3.00;;
26780;SDS011;14366;49.184;8.054;2023-05-07T09:08:50;3.77;;;2.60;;
26780;SDS011;14366;49.184;8.054;2023-05-07T09:14:21;3.50;;;3.15;;
26780;SDS011;14366;49.184;8.054;2023-05-07T09:19:39;5.40;;;2.95;;
26780;SDS011;14366;49.184;8.054;2023-05-07T09:24:58;3.50;;;3.00;;
26780;SDS011;14366;49.184;8.054;2023-05-07T09:30:29;3.45;;;3.00;;
26780;SDS011;14366;49.184;8.054;2023-05-07T09:36:02;3.30;;;3.00;;
26780;SDS011;14366;49.184;8.054;2023-05-07T09:41:44;3.80;;;3.00;;
26780;SDS011;14366;49.184;8.054;2023-05-07T09:47:16;3.20;;;2.90;;
26780;SDS011;14366;49.184;8.054;2023-05-07T09:52:47;4.10;;;3.30;;
26780;SDS011;14366;49.184;8.054;2023-05-07T09:58:21;5.15;;;2.95;;
26780;SDS011;14366;49.184;8.054;2023-05-07T10:09:11;3.60;;;3.00;;
26780;SDS011;14366;49.184;8.054;2023-05-07T10:19:49;5.25;;;3.00;;
26780;SDS011;14366;49.184;8.054;2023-05-07T10:30:27;4.43;;;2.78;;
26780;SDS011;14366;49.184;8.054;2023-05-07T10:36:00;3.55;;;2.80;;
26780;SDS011;14366;49.184;8.054;2023-05-07T10:41:36;6.37;;;3.40;;
26780;SDS011;14366;49.184;8.054;2023-05-07T10:47:09;3.33;;;3.03;;
26780;SDS011;14366;49.184;8.054;2023-05-07T10:52:42;4.80;;;3.23;;
26780;SDS011;14366;49.184;8.054;2023-05-07T10:58:23;4.40;;;3.20;;
26780;SDS011;14366;49.184;8.054;2023-05-07T11:04:14;3.20;;;2.80;;
26780;SDS011;14366;49.184;8.054;2023-05-07T11:09:56;4.33;;;2.53;;
26780;SDS011;14366;49.184;8.054;2023-05-07T11:15:33;3.20;;;2.80;;
26780;SDS011;14366;49.184;8.054;2023-05-07T11:21:05;3.62;;;3.00;;
26780;SDS011;14366;49.184;8.054;2023-05-07T11:27:03;3.70;;;2.87;;
26780;SDS011;14366;49.184;8.054;2023-05-07T11:32:36;3.27;;;2.60;;
26780;SDS011;14366;49.184;8.054;2023-05-07T11:38:08;2.70;;;2.40;;
26780;SDS011;14366;49.184;8.054;2023-05-07T11:43:54;3.12;;;2.83;;
26780;SDS011;14366;49.184;8.054;2023-05-07T11:49:26;5.00;;;2.75;;
26780;SDS011;14366;49.184;8.054;2023-05-07T11:54:58;3.20;;;2.90;;
26780;SDS011;14366;49.184;8.054;2023-05-07T12:00:32;2.50;;;2.30;;
26780;SDS011;14366;49.184;8.054;2023-05-07T12:06:05;4.10;;;2.70;;
26780;SDS011;14366;49.184;8.054;2023-05-07T12:16:42;7.75;;;3.72;;
26780;SDS011;14366;49.184;8.054;2023-05-07T12:22:14;5.65;;;3.00;;
26780;SDS011;14366;49.184;8.054;2023-05-07T12:27:51;5.70;;;2.90;;
26780;SDS011;14366;49.184;8.054;2023-05-07T12:33:25;4.70;;;2.92;;
26780;SDS011;14366;49.184;8.054;2023-05-07T12:39:01;3.55;;;2.70;;
26780;SDS011;14366;49.184;8.054;2023-05-07T12:49:42;3.08;;;2.70;;
26780;SDS011;14366;49.184;8.054;2023-05-07T12:55:17;3.80;;;2.78;;
26780;SDS011;14366;49.184;8.054;2023-05-07T13:00:53;2.94;;;2.50;;
26780;SDS011;14366;49.184;8.054;2023-05-07T13:06:29;3.20;;;2.70;;
26780;SDS011;14366;49.184;8.054;2023-05-07T13:12:01;3.45;;;2.50;;
26780;SDS011;14366;49.184;8.054;2023-05-07T13:17:18;4.43;;;3.00;;
26780;SDS011;14366;49.184;8.054;2023-05-07T13:22:36;4.62;;;2.67;;
26780;SDS011;14366;49.184;8.054;2023-05-07T13:28:09;4.80;;;2.50;;
26780;SDS011;14366;49.184;8.054;2023-05-07T13:33:41;3.93;;;2.80;;
26780;SDS011;14366;49.184;8.054;2023-05-07T13:39:14;5.55;;;3.00;;
26780;SDS011;14366;49.184;8.054;2023-05-07T13:44:43;2.78;;;2.22;;
26780;SDS011;14366;49.184;8.054;2023-05-07T13:50:00;4.40;;;2.55;;
26780;SDS011;14366;49.184;8.054;2023-05-07T13:55:36;4.22;;;2.20;;
26780;SDS011;14366;49.184;8.054;2023-05-07T14:01:08;2.07;;;1.60;;
26780;SDS011;14366;49.184;8.054;2023-05-07T14:06:41;2.55;;;1.90;;
26780;SDS011;14366;49.184;8.054;2023-05-07T14:12:03;3.23;;;1.80;;
26780;SDS011;14366;49.184;8.054;2023-05-07T14:17:38;3.45;;;2.05;;
26780;SDS011;14366;49.184;8.054;2023-05-07T14:23:10;2.90;;;1.83;;
26780;SDS011;14366;49.184;8.054;2023-05-07T14:28:28;2.30;;;1.90;;
26780;SDS011;14366;49.184;8.054;2023-05-07T14:39:05;3.85;;;1.92;;
26780;SDS011;14366;49.184;8.054;2023-05-07T14:44:25;3.30;;;2.10;;
26780;SDS011;14366;49.184;8.054;2023-05-07T14:49:57;2.33;;;1.90;;
26780;SDS011;14366;49.184;8.054;2023-05-07T14:55:14;2.42;;;1.90;;
26780;SDS011;14366;49.184;8.054;2023-05-07T15:00:49;2.70;;;1.80;;
26780;SDS011;14366;49.184;8.054;2023-05-07T15:06:19;3.95;;;2.10;;
26780;SDS011;14366;49.184;8.054;2023-05-07T15:11:54;3.10;;;2.17;;
26780;SDS011;14366;49.184;8.054;2023-05-07T15:17:27;2.33;;;2.10;;
26780;SDS011;14366;49.184;8.054;2023-05-07T15:22:59;4.53;;;1.92;;
26780;SDS011;14366;49.184;8.054;2023-05-07T15:28:32;2.10;;;1.63;;
26780;SDS011;14366;49.184;8.054;2023-05-07T15:34:07;1.35;;;1.25;;
26780;SDS011;14366;49.184;8.054;2023-05-07T15:39:38;3.45;;;1.65;;
26780;SDS011;14366;49.184;8.054;2023-05-07T15:44:59;2.90;;;1.60;;
26780;SDS011;14366;49.184;8.054;2023-05-07T15:50:19;1.80;;;1.70;;
26780;SDS011;14366;49.184;8.054;2023-05-07T15:56:06;2.75;;;1.90;;
26780;SDS011;14366;49.184;8.054;2023-05-07T16:01:38;5.40;;;1.60;;
26780;SDS011;14366;49.184;8.054;2023-05-07T16:06:56;4.05;;;1.60;;
26780;SDS011;14366;49.184;8.054;2023-05-07T16:12:32;2.85;;;1.40;;
26780;SDS011;14366;49.184;8.054;2023-05-07T16:18:08;1.85;;;1.40;;
26780;SDS011;14366;49.184;8.054;2023-05-07T16:23:47;2.20;;;1.40;;
26780;SDS011;14366;49.184;8.054;2023-05-07T16:29:21;1.50;;;1.30;;
26780;SDS011;14366;49.184;8.054;2023-05-07T16:34:56;1.70;;;1.20;;
26780;SDS011;14366;49.184;8.054;2023-05-07T16:40:18;1.80;;;1.23;;
26780;SDS011;14366;49.184;8.054;2023-05-07T16:45:49;2.50;;;1.10;;
26780;SDS011;14366;49.184;8.054;2023-05-07T16:51:21;1.57;;;1.30;;
26780;SDS011;14366;49.184;8.054;2023-05-07T16:56:55;1.60;;;1.20;;
26780;SDS011;14366;49.184;8.054;2023-05-07T17:02:44;2.70;;;1.40;;
26780;SDS011;14366;49.184;8.054;2023-05-07T17:08:19;2.47;;;1.40;;
26780;SDS011;14366;49.184;8.054;2023-05-07T17:13:53;2.27;;;1.40;;
26780;SDS011;14366;49.184;8.054;2023-05-07T17:19:27;1.90;;;1.57;;
26780;SDS011;14366;49.184;8.054;2023-05-07T17:29:54;1.80;;;1.40;;
26780;SDS011;14366;49.184;8.054;2023-05-07T17:40:30;1.60;;;1.50;;
26780;SDS011;14366;49.184;8.054;2023-05-07T17:45:49;2.00;;;1.80;;
26780;SDS011;14366;49.184;8.054;2023-05-07T17:51:24;2.20;;;1.80;;
26780;SDS011;14366;49.184;8.054;2023-05-07T17:56:59;2.00;;;1.60;;
26780;SDS011;14366;49.184;8.054;2023-05-07T18:02:17;1.93;;;1.33;;
26780;SDS011;14366;49.184;8.054;2023-05-07T18:07:52;1.78;;;1.50;;
26780;SDS011;14366;49.184;8.054;2023-05-07T18:13:27;1.80;;;1.50;;
26780;SDS011;14366;49.184;8.054;2023-05-07T18:24:07;1.70;;;1.40;;
26780;SDS011;14366;49.184;8.054;2023-05-07T18:29:39;2.37;;;1.50;;
26780;SDS011;14366;49.184;8.054;2023-05-07T18:40:17;2.30;;;1.60;;
26780;SDS011;14366;49.184;8.054;2023-05-07T18:50:54;4.17;;;2.00;;
26780;SDS011;14366;49.184;8.054;2023-05-07T18:56:27;1.80;;;1.70;;
26780;SDS011;14366;49.184;8.054;2023-05-07T19:02:03;2.60;;;1.80;;
26780;SDS011;14366;49.184;8.054;2023-05-07T19:07:24;3.67;;;1.80;;
26780;SDS011;14366;49.184;8.054;2023-05-07T19:12:57;2.50;;;1.80;;
26780;SDS011;14366;49.184;8.054;2023-05-07T19:18:27;2.90;;;1.90;;
26780;SDS011;14366;49.184;8.054;2023-05-07T19:23:45;3.33;;;1.90;;
26780;SDS011;14366;49.184;8.054;2023-05-07T19:29:04;1.77;;;1.50;;
26780;SDS011;14366;49.184;8.054;2023-05-07T19:34:36;3.20;;;1.60;;
26780;SDS011;14366;49.184;8.054;2023-05-07T19:40:08;2.12;;;1.70;;
26780;SDS011;14366;49.184;8.054;2023-05-07T19:45:42;2.83;;;1.70;;
26780;SDS011;14366;49.184;8.054;2023-05-07T19:51:18;3.70;;;1.60;;
26780;SDS011;14366;49.184;8.054;2023-05-07T19:56:53;2.90;;;1.60;;
26780;SDS011;14366;49.184;8.054;2023-05-07T20:02:26;2.05;;;1.50;;
26780;SDS011;14366;49.184;8.054;2023-05-07T20:07:59;3.70;;;1.70;;
26780;SDS011;14366;49.184;8.054;2023-05-07T20:13:19;3.40;;;1.80;;
26780;SDS011;14366;49.184;8.054;2023-05-07T20:18:37;5.40;;;1.70;;
26780;SDS011;14366;49.184;8.054;2023-05-07T20:24:11;2.20;;;2.00;;
26780;SDS011;14366;49.184;8.054;2023-05-07T20:29:45;2.67;;;1.77;;
26780;SDS011;14366;49.184;8.054;2023-05-07T20:35:21;2.93;;;1.60;;
26780;SDS011;14366;49.184;8.054;2023-05-07T20:40:57;3.83;;;1.87;;
26780;SDS011;14366;49.184;8.054;2023-05-07T20:46:29;3.87;;;1.67;;
26780;SDS011;14366;49.184;8.054;2023-05-07T20:51:48;2.00;;;1.70;;
26780;SDS011;14366;49.184;8.054;2023-05-07T20:57:21;2.87;;;1.80;;
26780;SDS011;14366;49.184;8.054;2023-05-07T21:02:57;1.80;;;1.67;;
26780;SDS011;14366;49.184;8.054;2023-05-07T21:08:19;2.00;;;1.80;;
26780;SDS011;14366;49.184;8.054;2023-05-07T21:13:53;2.50;;;1.80;;
26780;SDS011;14366;49.184;8.054;2023-05-07T21:24:31;2.70;;;1.63;;
26780;SDS011;14366;49.184;8.054;2023-05-07T21:30:07;3.00;;;1.70;;
26780;SDS011;14366;49.184;8.054;2023-05-07T21:35:41;3.00;;;1.65;;
26780;SDS011;14366;49.184;8.054;2023-05-07T21:41:04;2.70;;;1.90;;
26780;SDS011;14366;49.184;8.054;2023-05-07T21:46:36;4.15;;;1.80;;
26780;SDS011;14366;49.184;8.054;2023-05-07T21:51:57;4.10;;;1.90;;
26780;SDS011;14366;49.184;8.054;2023-05-07T21:57:19;2.72;;;1.84;;
26780;SDS011;14366;49.184;8.054;2023-05-07T22:02:54;3.60;;;2.10;;
26780;SDS011;14366;49.184;8.054;2023-05-07T22:08:13;2.13;;;1.83;;
26780;SDS011;14366;49.184;8.054;2023-05-07T22:13:36;2.00;;;1.85;;
26780;SDS011;14366;49.184;8.054;2023-05-07T22:19:09;2.80;;;1.80;;
26780;SDS011;14366;49.184;8.054;2023-05-07T22:24:29;2.17;;;1.97;;
26780;SDS011;14366;49.184;8.054;2023-05-07T22:30:01;2.75;;;2.00;;
26780;SDS011;14366;49.184;8.054;2023-05-07T22:40:40;2.20;;;2.00;;
26780;SDS011;14366;49.184;8.054;2023-05-07T22:51:04;3.17;;;2.50;;
26780;SDS011;14366;49.184;8.054;2023-05-07T22:56:36;3.00;;;2.30;;
26780;SDS011;14366;49.184;8.054;2023-05-07T23:02:11;2.93;;;2.53;;
26780;SDS011;14366;49.184;8.054;2023-05-07T23:07:30;3.45;;;2.45;;
26780;SDS011;14366;49.184;8.054;2023-05-07T23:13:00;2.90;;;2.70;;
26780;SDS011;14366;49.184;8.054;2023-05-07T23:18:33;3.70;;;3.40;;
26780;SDS011;14366;49.184;8.054;2023-05-07T23:23:56;4.80;;;3.80;;
26780;SDS011;14366;49.184;8.054;2023-05-07T23:29:27;4.57;;;4.00;;
26780;SDS011;14366;49.184;8.054;2023-05-07T23:34:48;5.67;;;4.73;;
26780;SDS011;14366;49.184;8.054;2023-05-07T23:40:20;5.17;;;4.67;;
26780;SDS011;14366;49.184;8.054;2023-05-07T23:45:51;6.00;;;4.85;;
26780;SDS011;14366;49.184;8.054;2023-05-07T23:51:12;4.70;;;4.20;;
26780;SDS011;14366;49.184;8.054;2023-05-07T23:56:30;4.90;;;4.30;;
